Time;durP1;ratioP1;P1;durP2;ratioP2;P2;SDS_P1;SDS_P2;PMS_P1;PMS_P2;Temp;Humidity;BMP_temperature;BMP_pressure;BME280_temperature;BME280_humidity;BME280_pressure;Samples;Min_cycle;Max_cycle;Signal;HPM_P1;HPM_P2
2022/10/22 00:02:52;;;;;;;30.63;20.33;;;;;;;11.88;100.00;100099.20;3323067;88;26179;-92
2022/10/22 00:07:53;;;;;;;32.57;21.13;;;;;;;11.86;100.00;100107.06;3375256;86;99525;-93
2022/10/22 00:12:54;;;;;;;31.83;20.40;;;;;;;11.81;100.00;100102.73;3433987;85;25809;-92
2022/10/22 00:17:54;;;;;;;33.10;20.83;;;;;;;11.84;100.00;100105.30;3426146;85;98981;-92
2022/10/22 00:22:55;;;;;;;29.42;19.85;;;;;;;11.84;100.00;100105.30;3419734;85;25786;-94
2022/10/22 00:27:56;;;;;;;31.70;21.17;;;;;;;11.84;100.00;100104.70;3419176;85;99537;-92
2022/10/22 00:32:57;;;;;;;37.93;21.87;;;;;;;11.83;100.00;100078.31;3421792;86;33771;-96
2022/10/22 00:37:57;;;;;;;32.80;20.33;;;;;;;11.84;100.00;100074.97;3380276;85;99503;-94
2022/10/22 00:42:58;;;;;;;33.67;21.50;;;;;;;11.86;100.00;100075.35;3387870;86;33259;-94
2022/10/22 00:48:06;;;;;;;28.73;20.93;;;;;;;11.86;100.00;100072.59;3361972;85;99168;-95
2022/10/22 00:53:20;;;;;;;36.47;22.17;;;;;;;11.86;100.00;100077.53;3389880;86;25886;-93
2022/10/22 00:58:26;;;;;;;33.08;21.45;;;;;;;11.87;100.00;100074.97;3414892;83;99388;-94
2022/10/22 01:03:28;;;;;;;34.20;21.83;;;;;;;11.87;100.00;100070.83;3433363;85;26395;-91
2022/10/22 01:08:47;;;;;;;33.45;21.48;;;;;;;11.89;100.00;100070.44;3396890;85;99532;-92
2022/10/22 01:14:19;;;;;;;31.75;20.82;;;;;;;11.88;100.00;100067.50;3399705;85;25770;-93
2022/10/22 01:20:18;;;;;;;30.63;21.17;;;;;;;11.87;100.00;100048.77;3403557;85;99616;-92
2022/10/22 01:25:39;;;;;;;34.70;24.30;;;;;;;11.88;100.00;100035.78;3401939;85;25797;-94
2022/10/22 01:30:42;;;;;;;34.10;21.80;;;;;;;11.88;100.00;100040.69;3406496;84;99312;-93
2022/10/22 01:35:44;;;;;;;32.67;21.77;;;;;;;11.89;100.00;100037.36;3421797;85;25876;-94
2022/10/22 01:40:47;;;;;;;31.20;21.53;;;;;;;11.88;100.00;100043.45;3418327;85;99334;-94
2022/10/22 01:45:51;;;;;;;35.55;22.35;;;;;;;11.87;100.00;100041.08;3411506;85;25980;-93
2022/10/22 01:51:01;;;;;;;31.67;21.83;;;;;;;11.87;100.00;100041.08;3374067;85;99330;-94
2022/10/22 01:56:28;;;;;;;33.10;22.07;;;;;;;11.87;100.00;100036.36;3406026;85;25903;-94
2022/10/22 02:01:47;;;;;;;29.37;20.23;;;;;;;11.89;100.00;100042.26;3392984;86;26116;-94
2022/10/22 02:06:50;;;;;;;31.35;21.60;;;;;;;11.90;100.00;100041.10;3401669;84;99276;-92
2022/10/22 02:11:53;;;;;;;30.93;22.07;;;;;;;11.89;100.00;100053.90;3423282;85;25902;-94
2022/10/22 02:16:56;;;;;;;33.25;21.70;;;;;;;11.88;100.00;100064.13;3358334;85;99515;-94
2022/10/22 02:21:57;;;;;;;36.68;22.55;;;;;;;11.85;100.00;100056.66;3368520;87;26427;-95
2022/10/22 02:27:15;;;;;;;32.53;22.97;;;;;;;11.86;100.00;100043.06;3427552;84;99367;-94
2022/10/22 02:32:21;;;;;;;34.27;22.10;;;;;;;11.84;100.00;100047.40;3414939;85;26651;-95
2022/10/22 02:37:23;;;;;;;31.90;23.17;;;;;;;11.85;100.00;100041.50;3427431;85;99495;-95
2022/10/22 02:42:25;;;;;;;37.03;23.17;;;;;;;11.89;100.00;100049.77;3368348;87;25905;-95
2022/10/22 02:47:27;;;;;;;32.50;23.07;;;;;;;11.89;100.00;100049.77;3392918;85;99434;-95
2022/10/22 02:52:28;;;;;;;36.07;22.70;;;;;;;11.91;100.00;100073.58;3441308;85;34454;-94
2022/10/22 02:57:28;;;;;;;40.80;26.12;;;;;;;11.91;100.00;100073.58;3420516;84;99502;-95
2022/10/22 03:02:29;;;;;;;40.03;26.40;;;;;;;11.89;100.00;100072.59;3430560;85;33288;-94
2022/10/22 03:07:30;;;;;;;40.17;26.13;;;;;;;11.87;100.00;100057.05;3398106;85;99700;-96
2022/10/22 03:12:31;;;;;;;42.00;25.07;;;;;;;11.90;100.00;100055.47;3411888;85;33349;-94
2022/10/22 03:17:31;;;;;;;41.95;26.77;;;;;;;11.92;100.00;100059.98;3409351;84;99376;-94
2022/10/22 03:22:34;;;;;;;40.90;25.62;;;;;;;11.92;100.00;100062.17;3409472;86;33165;-94
2022/10/22 03:27:38;;;;;;;49.33;28.70;;;;;;;11.95;100.00;100061.97;3394641;85;99466;-95
2022/10/22 03:32:39;;;;;;;45.00;25.70;;;;;;;11.98;100.00;100061.16;3412409;85;34118;-95
2022/10/22 03:37:39;;;;;;;41.28;25.30;;;;;;;12.01;100.00;100052.12;3390630;84;99458;-95
2022/10/22 03:42:41;;;;;;;48.23;28.67;;;;;;;12.03;100.00;100069.05;3393451;86;31312;-96
2022/10/22 03:47:42;;;;;;;49.20;28.70;;;;;;;12.01;100.00;100074.98;3351433;86;99528;-96
2022/10/22 03:52:43;;;;;;;50.20;27.87;;;;;;;12.04;100.00;100074.78;3413012;85;31917;-95
2022/10/22 03:57:44;;;;;;;51.13;30.27;;;;;;;12.06;100.00;100057.23;3420582;85;99626;-95
2022/10/22 04:02:44;;;;;;;54.10;29.83;;;;;;;12.07;100.00;100064.32;3407678;85;31403;-96
2022/10/22 04:07:45;;;;;;;56.53;29.63;;;;;;;12.03;100.00;100058.81;3415698;84;99295;-94
2022/10/22 04:12:47;;;;;;;47.14;27.88;;;;;;;11.89;100.00;100049.77;3412902;85;32338;-94
2022/10/22 04:17:48;;;;;;;50.15;28.05;;;;;;;12.01;100.00;100071.42;3424177;84;99610;-94
2022/10/22 04:22:49;;;;;;;48.43;29.50;;;;;;;11.93;100.00;100066.50;3426582;85;25845;-95
2022/10/22 04:27:49;;;;;;;44.90;27.37;;;;;;;12.04;100.00;100067.89;3411724;85;99453;-96
2022/10/22 04:32:50;;;;;;;49.47;29.20;;;;;;;12.05;100.00;100074.36;3416065;85;34874;-96
2022/10/22 04:37:51;;;;;;;48.70;26.53;;;;;;;12.06;100.00;100068.27;3413916;84;99456;-96
2022/10/22 04:42:52;;;;;;;49.77;28.80;;;;;;;12.06;100.00;100059.41;3348149;86;35538;-96
2022/10/22 04:47:52;;;;;;;53.07;27.70;;;;;;;12.07;100.00;100067.08;3415925;84;99462;-95
2022/10/22 04:52:53;;;;;;;50.30;28.38;;;;;;;12.08;100.00;100065.31;3418248;85;34916;-94
2022/10/22 04:57:54;;;;;;;48.17;28.50;;;;;;;12.08;100.00;100090.14;3417214;84;99458;-95
2022/10/22 05:02:55;;;;;;;43.57;26.43;;;;;;;12.08;100.00;100093.47;3416806;86;29136;-95
2022/10/22 05:07:56;;;;;;;52.10;27.50;;;;;;;12.09;100.00;100082.62;3407522;84;99567;-94
2022/10/22 05:12:56;;;;;;;51.40;27.93;;;;;;;12.09;100.00;100086.19;3403352;85;25814;-95
2022/10/22 05:17:57;;;;;;;48.13;26.77;;;;;;;12.11;100.00;100091.31;3414662;85;99643;-95
2022/10/22 05:22:58;;;;;;;46.23;26.73;;;;;;;12.11;100.00;100084.42;3415058;85;32525;-94
2022/10/22 05:27:59;;;;;;;50.87;27.30;;;;;;;12.10;100.00;100082.24;3410487;85;99517;-95
2022/10/22 05:33:00;;;;;;;48.75;26.10;;;;;;;12.12;100.00;100073.58;3409505;85;32450;-95
2022/10/22 05:38:00;;;;;;;52.30;28.07;;;;;;;12.14;100.00;100088.55;3409866;85;99399;-96
2022/10/22 05:43:01;;;;;;;52.10;28.17;;;;;;;12.16;100.00;100105.48;3399198;86;28014;-95
2022/10/22 05:48:02;;;;;;;54.90;28.47;;;;;;;12.17;100.00;100105.71;3406288;85;99399;-95
2022/10/22 05:53:04;;;;;;;53.47;29.90;;;;;;;12.20;100.00;100100.77;3348223;86;26107;-95
2022/10/22 05:58:05;;;;;;;57.60;26.67;;;;;;;12.20;100.00;100111.80;3291282;87;99628;-95
2022/10/22 06:03:06;;;;;;;60.20;29.47;;;;;;;12.22;100.00;100107.27;3411349;85;26478;-94
2022/10/22 06:08:10;;;;;;;58.00;28.40;;;;;;;12.26;100.00;100109.45;3390715;85;99524;-95
2022/10/22 06:13:12;;;;;;;64.90;29.40;;;;;;;12.30;100.00;100108.83;3376715;86;59051;-94
2022/10/22 06:18:13;;;;;;;58.37;26.87;;;;;;;12.32;100.00;100104.48;3405042;85;99540;-93
2022/10/22 06:23:14;;;;;;;64.80;29.53;;;;;;;12.32;100.00;100123.81;3396739;85;27326;-94
2022/10/22 06:28:15;;;;;;;54.08;26.10;;;;;;;12.34;100.00;100128.36;3394941;86;99272;-95
2022/10/22 06:33:15;;;;;;;57.93;29.30;;;;;;;12.35;100.00;100132.69;3406211;85;26172;-95
2022/10/22 06:38:16;;;;;;;72.70;29.90;;;;;;;12.39;100.00;100134.86;3407887;85;99536;-96
2022/10/22 06:43:17;;;;;;;62.77;29.63;;;;;;;12.41;100.00;100143.52;3416267;86;25893;-96
2022/10/22 06:48:18;;;;;;;61.50;28.00;;;;;;;12.41;100.00;100136.63;3387020;85;99337;-95
2022/10/22 06:53:19;;;;;;;65.93;29.87;;;;;;;12.44;100.00;100135.81;3415475;86;26224;-94
2022/10/22 06:58:20;;;;;;;59.43;26.53;;;;;;;12.50;100.00;100133.45;3430249;84;99372;-96
2022/10/22 07:03:20;;;;;;;69.37;28.80;;;;;;;12.56;100.00;100138.19;3459757;84;33235;-94
2022/10/22 07:08:21;;;;;;;71.77;30.90;;;;;;;12.62;100.00;100142.11;3431050;84;99459;-95
2022/10/22 07:13:22;;;;;;;70.20;31.27;;;;;;;12.66;100.00;100163.61;3447120;84;33666;-94
2022/10/22 07:18:23;;;;;;;70.60;31.43;;;;;;;12.72;100.00;100184.69;3438647;84;99402;-95
2022/10/22 07:23:24;;;;;;;66.23;29.67;;;;;;;12.74;100.00;100178.97;3459041;84;33713;-93
2022/10/22 07:28:25;;;;;;;69.60;29.50;;;;;;;12.81;100.00;100171.27;3448810;84;99053;-95
2022/10/22 07:33:26;;;;;;;57.83;28.33;;;;;;;12.84;100.00;100175.41;3452225;84;27956;-93
2022/10/22 07:38:28;;;;;;;62.53;29.77;;;;;;;12.86;100.00;100184.07;3457578;84;99518;-94
2022/10/22 07:43:29;;;;;;;68.00;31.05;;;;;;;12.91;100.00;100191.18;3450976;84;33254;-96
2022/10/22 07:48:30;;;;;;;70.17;31.70;;;;;;;12.96;100.00;100198.48;3460447;84;99811;-96
2022/10/22 07:53:31;;;;;;;64.33;31.57;;;;;;;12.99;100.00;100188.03;3452864;84;33010;-91
2022/10/22 07:58:32;;;;;;;71.20;32.53;;;;;;;13.05;100.00;100188.39;3447437;84;99520;-89
2022/10/22 08:03:33;;;;;;;74.60;32.23;;;;;;;13.08;100.00;100193.91;3452232;84;32227;-91
2022/10/22 08:08:34;;;;;;;74.00;34.53;;;;;;;13.13;100.00;100193.50;3438556;84;99537;-90
2022/10/22 08:13:35;;;;;;;72.70;33.67;;;;;;;13.15;100.00;100192.53;3445780;84;32346;-90
2022/10/22 08:18:37;;;;;;;79.37;35.87;;;;;;;13.18;100.00;100195.86;3438891;84;99169;-92
2022/10/22 08:23:38;;;;;;;74.27;34.40;;;;;;;13.22;100.00;100184.78;3454546;84;32299;-89
2022/10/22 08:28:39;;;;;;;72.22;33.63;;;;;;;13.25;100.00;100194.44;3446354;84;99505;-90
2022/10/22 08:33:40;;;;;;;83.20;36.25;;;;;;;13.30;100.00;100197.41;3465682;84;32848;-91
2022/10/22 08:38:41;;;;;;;74.00;34.10;;;;;;;13.32;100.00;100210.22;3450114;84;99411;-91
2022/10/22 08:44:20;;;;;;;67.73;33.93;;;;;;;13.34;100.00;100214.16;3452559;84;32485;-90
2022/10/22 08:49:28;;;;;;;74.40;34.97;;;;;;;13.37;100.00;100217.52;3452292;84;99201;-90
2022/10/22 08:54:57;;;;;;;71.35;35.23;;;;;;;13.42;100.00;100205.25;3451371;84;32088;-90
2022/10/22 09:00:21;;;;;;;63.83;33.55;;;;;;;13.40;100.00;100195.97;3456049;84;98930;-91
2022/10/22 09:05:43;;;;;;;64.30;32.85;;;;;;;13.51;100.00;100215.30;3439347;84;33830;-89
2022/10/22 09:10:52;;;;;;;66.40;33.40;;;;;;;13.57;100.00;100217.22;3455317;84;99387;-90
2022/10/22 09:15:58;;;;;;;68.02;32.73;;;;;;;13.63;100.00;100211.47;3464836;83;32812;-89
2022/10/22 09:21:29;;;;;;;66.67;35.35;;;;;;;13.69;100.00;100215.38;3456969;84;99241;-89
2022/10/22 09:26:34;;;;;;;61.42;32.38;;;;;;;13.75;100.00;100215.18;3434003;84;99528;-89
2022/10/22 09:31:35;;;;;;;57.95;30.65;;;;;;;13.82;100.00;100224.02;3440985;84;26604;-88
2022/10/22 09:36:37;;;;;;;50.70;28.17;;;;;;;13.85;100.00;100219.08;3463479;84;99343;-87
2022/10/22 09:41:38;;;;;;;46.67;27.53;;;;;;;13.92;100.00;100216.26;3463831;84;26469;-87
2022/10/22 09:46:42;;;;;;;46.50;27.47;;;;;;;13.98;100.00;100214.64;3455678;84;99399;-87
2022/10/22 09:51:55;;;;;;;53.30;28.60;;;;;;;14.02;100.00;100210.64;3461564;84;34191;-88
2022/10/22 09:57:03;;;;;;;46.50;27.17;;;;;;;14.10;100.00;100225.23;3434938;84;99427;-89
2022/10/22 10:02:15;;;;;;;44.30;28.40;;;;;;;14.15;100.00;100236.67;3399737;85;32622;-88
2022/10/22 10:07:25;;;;;;;46.37;27.20;;;;;;;14.19;100.00;100247.16;3393690;85;99402;-88
2022/10/22 10:12:56;;;;;;;47.78;28.47;;;;;;;14.20;100.00;100246.55;3399797;85;33796;-89
2022/10/22 10:18:26;;;;;;;45.92;28.15;;;;;;;14.21;100.00;100257.22;3395512;84;99577;-89
2022/10/22 10:23:44;;;;;;;41.73;26.35;;;;;;;14.18;100.00;100259.98;3405247;85;33176;-89
2022/10/22 10:28:51;;;;;;;48.20;31.30;;;;;;;14.17;100.00;100257.80;3395485;84;99638;-88
2022/10/22 10:34:16;;;;;;;47.00;30.05;;;;;;;14.15;100.00;100262.97;3409996;85;31602;-89
2022/10/22 10:39:43;;;;;;;46.13;27.75;;;;;;;14.08;100.00;100264.40;3397251;84;99674;-87
2022/10/22 10:45:08;;;;;;;38.93;26.17;;;;;;;14.00;100.00;100263.46;3373827;85;29479;-87
2022/10/22 10:50:37;;;;;;;38.25;25.00;;;;;;;13.97;100.00;100262.88;3396338;84;99258;-86
2022/10/22 10:56:01;;;;;;;39.18;24.20;;;;;;;13.98;100.00;100260.30;3404779;85;33275;-84
2022/10/22 11:01:13;;;;;;;39.13;23.63;;;;;;;13.95;100.00;100256.34;3391984;85;99164;-85
2022/10/22 11:06:18;;;;;;;39.55;23.98;;;;;;;13.95;100.00;100255.58;3390820;85;99616;-84
2022/10/22 11:11:24;;;;;;;34.48;21.85;;;;;;;13.95;100.00;100239.75;3397795;85;32049;-83
2022/10/22 11:16:35;;;;;;;37.08;23.00;;;;;;;13.92;100.00;100233.66;3399449;85;99464;-83
2022/10/22 11:22:05;;;;;;;44.75;28.90;;;;;;;13.92;100.00;100234.24;3395538;85;33351;-84
2022/10/22 11:27:42;;;;;;;49.27;30.08;;;;;;;13.93;100.00;100245.49;3393056;84;99540;-83
2022/10/22 11:32:54;;;;;;;40.80;25.37;;;;;;;13.96;100.00;100232.25;3400062;85;31974;-84
2022/10/22 11:37:57;;;;;;;40.88;23.83;;;;;;;14.03;100.00;100228.85;3404806;85;99436;-84
2022/10/22 11:43:08;;;;;;;36.70;23.93;;;;;;;14.08;100.00;100234.55;3366346;85;27576;-84
2022/10/22 11:48:17;;;;;;;38.48;25.23;;;;;;;14.10;100.00;100227.41;3396608;85;99342;-84
2022/10/22 11:53:31;;;;;;;41.45;26.57;;;;;;;14.18;100.00;100228.16;3408953;85;33297;-83
2022/10/22 11:58:43;;;;;;;37.95;24.20;;;;;;;14.24;100.00;100235.67;3394866;84;99490;-85
2022/10/22 12:03:51;;;;;;;36.45;24.63;;;;;;;14.26;100.00;100239.39;3406145;85;33252;-85
2022/10/22 12:08:59;;;;;;;33.67;22.05;;;;;;;14.28;100.00;100231.48;3393286;85;99305;-86
2022/10/22 12:14:28;;;;;;;30.88;21.62;;;;;;;14.35;100.00;100226.69;3408373;85;33279;-85
2022/10/22 12:19:33;;;;;;;31.23;21.95;;;;;;;14.36;100.00;100224.69;3397472;85;99135;-87
2022/10/22 12:24:39;;;;;;;29.90;20.77;;;;;;;14.36;100.00;100229.64;3396086;85;25987;-85
2022/10/22 12:29:40;;;;;;;27.62;19.50;;;;;;;14.36;100.00;100218.56;3414042;85;99347;-85
2022/10/22 12:34:52;;;;;;;34.23;22.23;;;;;;;14.32;100.00;100223.92;3418810;85;26253;-86
2022/10/22 12:39:52;;;;;;;29.98;20.48;;;;;;;14.32;100.00;100221.16;3370056;85;98949;-85
2022/10/22 12:44:56;;;;;;;28.90;20.47;;;;;;;14.31;100.00;100214.84;3409825;85;25932;-84
2022/10/22 12:49:57;;;;;;;32.78;23.18;;;;;;;14.33;100.00;100211.67;3396639;84;99275;-86
2022/10/22 12:54:58;;;;;;;31.33;22.17;;;;;;;14.34;100.00;100214.63;3405989;85;26899;-86
2022/10/22 12:59:59;;;;;;;27.03;19.33;;;;;;;14.35;100.00;100223.12;3430305;84;99233;-86
2022/10/22 13:05:23;;;;;;;27.67;19.17;;;;;;;14.34;100.00;100227.86;3455524;84;31690;-87
2022/10/22 13:10:35;;;;;;;29.00;19.23;;;;;;;14.36;100.00;100228.84;3445946;84;99202;-84
2022/10/22 13:15:38;;;;;;;27.62;19.30;;;;;;;14.32;100.00;100228.88;3453157;84;34331;-84
2022/10/22 13:20:53;;;;;;;25.17;17.37;;;;;;;14.33;100.00;100224.13;3444960;84;99421;-84
2022/10/22 13:26:04;;;;;;;26.82;18.65;;;;;;;14.26;100.00;100234.66;3451204;84;33871;-83
2022/10/22 13:31:24;;;;;;;31.62;19.50;;;;;;;14.22;100.00;100235.27;3424279;84;98900;-84
2022/10/22 13:36:25;;;;;;;28.52;19.50;;;;;;;14.22;100.00;100238.65;3446468;84;99535;-82
2022/10/22 13:41:32;;;;;;;30.87;20.57;;;;;;;14.21;100.00;100238.43;3453791;84;32900;-84
2022/10/22 13:46:39;;;;;;;32.35;21.50;;;;;;;14.22;100.00;100239.42;3421924;84;99489;-85
2022/10/22 13:51:36;;;;;;;32.05;21.95;;;;;;;14.19;100.00;100240.24;3450583;84;33331;-85
2022/10/22 13:56:36;;;;;;;34.43;24.30;;;;;;;14.19;100.00;100250.48;3448474;84;99360;-87
2022/10/22 14:01:38;;;;;;;39.47;26.90;;;;;;;14.23;100.00;100252.67;3408978;85;31848;-88
2022/10/22 14:06:39;;;;;;;44.15;26.55;;;;;;;14.27;100.00;100249.27;3398734;84;99387;-87
2022/10/22 14:11:39;;;;;;;42.00;27.87;;;;;;;14.26;100.00;100243.55;3377069;85;32911;-87
2022/10/22 14:16:40;;;;;;;44.18;28.12;;;;;;;14.27;100.00;100257.56;3330570;87;99557;-87
2022/10/22 14:21:41;;;;;;;42.57;28.77;;;;;;;14.27;100.00;100262.52;3402977;85;32759;-88
2022/10/22 14:26:42;;;;;;;48.00;27.55;;;;;;;14.28;100.00;100257.17;3397230;84;99369;-87
2022/10/22 14:31:43;;;;;;;42.48;27.95;;;;;;;14.33;100.00;100260.89;3387808;85;33258;-88
2022/10/22 14:36:44;;;;;;;43.52;28.60;;;;;;;14.35;100.00;100261.30;3382585;84;99440;-88
2022/10/22 14:41:44;;;;;;;43.10;28.87;;;;;;;14.39;100.00;100269.57;3406310;85;29706;-87
2022/10/22 14:46:45;;;;;;;43.87;28.23;;;;;;;14.41;100.00;100274.89;3364727;84;99552;-88
2022/10/22 14:51:46;;;;;;;41.00;27.03;;;;;;;14.41;100.00;100269.36;3398626;85;26496;-88
2022/10/22 14:56:47;;;;;;;43.03;27.87;;;;;;;14.44;100.00;100278.84;3391070;85;99496;-88
2022/10/22 15:01:48;;;;;;;39.43;24.87;;;;;;;14.42;100.00;100264.00;3408259;85;26295;-88
2022/10/22 15:06:49;;;;;;;42.62;26.05;;;;;;;14.45;100.00;100279.79;3341959;87;99324;-86
2022/10/22 15:11:50;;;;;;;45.03;29.20;;;;;;;14.49;100.00;100290.87;3406859;85;34976;-87
2022/10/22 15:16:51;;;;;;;45.07;27.30;;;;;;;14.54;100.00;100286.25;3398030;85;99439;-88
2022/10/22 15:21:51;;;;;;;43.33;26.80;;;;;;;14.55;100.00;100296.16;3421406;85;31673;-87
2022/10/22 15:26:54;;;;;;;41.30;27.40;;;;;;;14.55;100.00;100296.16;3332969;87;99623;-88
2022/10/22 15:32:02;;;;;;;44.53;27.45;;;;;;;14.57;100.00;100300.69;3413157;85;35191;-90
2022/10/22 15:37:07;;;;;;;42.80;25.60;;;;;;;14.56;100.00;100303.27;3403197;84;99582;-90
2022/10/22 15:42:08;;;;;;;40.80;26.42;;;;;;;14.56;100.00;100303.27;3418744;85;34882;-90
2022/10/22 15:47:10;;;;;;;41.58;27.75;;;;;;;14.56;100.00;100309.58;3346742;87;99675;-90
2022/10/22 15:52:11;;;;;;;46.20;30.27;;;;;;;14.57;100.00;100315.92;3353604;86;35857;-90
2022/10/22 15:57:12;;;;;;;38.67;26.03;;;;;;;14.56;100.00;100319.89;3395459;84;99390;-89
2022/10/22 16:02:14;;;;;;;40.43;25.53;;;;;;;14.56;100.00;100317.12;3409192;85;30296;-90
2022/10/22 16:07:15;;;;;;;39.40;24.82;;;;;;;14.56;100.00;100320.66;3371808;85;99390;-90
2022/10/22 16:12:16;;;;;;;42.97;25.87;;;;;;;14.55;100.00;100330.78;3402846;85;28309;-91
2022/10/22 16:17:17;;;;;;;47.97;27.20;;;;;;;14.53;100.00;100345.03;3398785;85;99408;-89
2022/10/22 16:22:18;;;;;;;41.08;26.15;;;;;;;14.52;100.00;100346.81;3408662;85;29142;-90
2022/10/22 16:27:19;;;;;;;40.73;26.10;;;;;;;14.48;100.00;100347.42;3344749;87;99453;-89
2022/10/22 16:32:20;;;;;;;42.53;27.37;;;;;;;14.51;100.00;100356.31;3403187;85;26433;-89
2022/10/22 16:37:21;;;;;;;46.45;25.72;;;;;;;14.50;100.00;100354.75;3404258;85;99554;-88
2022/10/22 16:42:22;;;;;;;47.90;30.13;;;;;;;14.49;100.00;100360.87;3409994;85;32576;-89
2022/10/22 16:47:23;;;;;;;50.70;30.30;;;;;;;14.51;100.00;100364.01;3289573;87;99273;-90
2022/10/22 16:52:24;;;;;;;47.88;28.10;;;;;;;14.52;100.00;100370.35;3410624;85;32588;-89
2022/10/22 16:57:26;;;;;;;53.00;29.70;;;;;;;14.50;100.00;100373.52;3393256;85;99411;-88
2022/10/22 17:02:27;;;;;;;50.52;29.67;;;;;;;14.51;100.00;100378.47;3444129;84;32595;-90
2022/10/22 17:07:27;;;;;;;43.80;29.10;;;;;;;14.51;100.00;100388.16;3444271;84;99334;-89
2022/10/22 17:12:34;;;;;;;44.03;28.70;;;;;;;14.51;100.00;100386.16;3463369;84;26492;-89
2022/10/22 17:17:32;;;;;;;42.58;27.90;;;;;;;14.51;100.00;100393.09;3454193;84;99485;-89
2022/10/22 17:22:33;;;;;;;41.42;27.65;;;;;;;14.49;100.00;100399.64;3452247;84;32669;-90
2022/10/22 17:27:34;;;;;;;41.97;28.13;;;;;;;14.48;100.00;100400.03;3449049;84;99517;-91
2022/10/22 17:32:37;;;;;;;43.03;28.43;;;;;;;14.48;100.00;100397.27;3429248;84;27774;-91
2022/10/22 17:37:38;;;;;;;48.28;30.52;;;;;;;14.48;100.00;100403.61;3454622;84;99539;-90
2022/10/22 17:42:39;;;;;;;59.48;33.18;;;;;;;14.46;100.00;100411.54;3444662;84;31683;-88
2022/10/22 17:47:40;;;;;;;56.40;34.90;;;;;;;14.47;100.00;100418.65;3439972;84;99493;-89
2022/10/22 17:52:41;;;;;;;53.07;34.73;;;;;;;14.47;100.00;100416.46;3447700;84;26847;-88
2022/10/22 17:57:42;;;;;;;47.23;32.00;;;;;;;14.44;100.00;100422.21;3440460;84;99466;-89
2022/10/22 18:02:43;;;;;;;49.23;30.43;;;;;;;14.43;100.00;100427.56;3444916;84;25929;-90
2022/10/22 18:07:44;;;;;;;47.33;29.33;;;;;;;14.40;100.00;100425.58;3440667;84;99620;-91
2022/10/22 18:12:44;;;;;;;47.27;29.33;;;;;;;14.38;100.00;100423.83;3450094;84;26051;-90
2022/10/22 18:17:46;;;;;;;45.17;29.57;;;;;;;14.36;100.00;100432.34;3445355;84;99486;-90
2022/10/22 18:22:47;;;;;;;53.10;32.00;;;;;;;14.33;100.00;100441.47;3448357;84;27598;-90
2022/10/22 18:27:48;;;;;;;50.57;30.37;;;;;;;14.31;100.00;100445.21;3446994;84;99318;-90
2022/10/22 18:33:01;;;;;;;46.10;29.10;;;;;;;14.29;100.00;100460.06;3447640;84;33241;-90
2022/10/22 18:38:01;;;;;;;43.98;29.60;;;;;;;14.28;100.00;100455.72;3441848;84;99310;-91
2022/10/22 18:43:03;;;;;;;44.77;29.70;;;;;;;14.27;100.00;100452.73;3444697;84;28463;-92
2022/10/22 18:48:04;;;;;;;47.93;30.23;;;;;;;14.24;100.00;100464.03;3446048;84;98996;-92
2022/10/22 18:53:05;;;;;;;42.10;26.77;;;;;;;14.22;100.00;100460.86;3459113;84;33242;-90
2022/10/22 18:58:06;;;;;;;43.20;27.67;;;;;;;14.19;100.00;100458.08;3459089;84;99319;-93
2022/10/22 19:03:07;;;;;;;44.43;26.00;;;;;;;14.21;100.00;100465.41;3442604;84;33382;-93
2022/10/22 19:08:09;;;;;;;43.67;27.23;;;;;;;14.17;100.00;100456.31;3396724;85;99401;-96
2022/10/22 19:13:12;;;;;;;43.37;26.97;;;;;;;14.25;100.00;100474.50;3396382;85;33288;-91
2022/10/22 19:18:15;;;;;;;39.55;27.05;;;;;;;14.24;100.00;100482.03;3414043;83;99074;-91
2022/10/22 19:23:15;;;;;;;41.50;26.10;;;;;;;14.26;100.00;100488.53;3411925;85;26504;-90
2022/10/22 19:28:16;;;;;;;40.23;27.10;;;;;;;14.29;100.00;100487.74;3399067;84;99506;-90
2022/10/22 19:33:17;;;;;;;45.43;29.03;;;;;;;14.29;100.00;100498.81;3398844;85;33792;-95
2022/10/22 19:38:18;;;;;;;45.30;28.30;;;;;;;14.31;100.00;100497.81;3407373;84;99450;-91
2022/10/22 19:43:21;;;;;;;45.63;28.13;;;;;;;14.30;100.00;100500.39;3403630;85;33776;-91
2022/10/22 19:48:22;;;;;;;45.87;30.30;;;;;;;14.29;100.00;100514.05;3402314;82;99229;-92
2022/10/22 19:53:23;;;;;;;40.47;27.53;;;;;;;14.26;100.00;100525.91;3407737;85;33747;-91
2022/10/22 19:58:24;;;;;;;37.97;25.83;;;;;;;14.21;100.00;100535.99;3399283;85;99422;-94
2022/10/22 20:03:25;;;;;;;38.13;25.93;;;;;;;14.14;100.00;100533.22;3411219;85;33929;-91
2022/10/22 20:08:26;;;;;;;38.23;26.13;;;;;;;14.09;100.00;100530.84;3405758;84;99473;-91
2022/10/22 20:13:28;;;;;;;33.43;23.53;;;;;;;14.01;100.00;100543.13;3405462;85;34320;-92
2022/10/22 20:18:32;;;;;;;38.00;25.13;;;;;;;13.94;100.00;100541.73;3398910;85;99539;-93
2022/10/22 20:23:34;;;;;;;33.15;22.77;;;;;;;13.86;100.00;100545.70;3407866;85;26065;-91
2022/10/22 20:28:37;;;;;;;35.10;22.90;;;;;;;13.78;100.00;100554.59;3351042;86;99363;-91
2022/10/22 20:33:38;;;;;;;28.37;19.93;;;;;;;13.66;100.00;100560.52;3295986;88;33784;-93
2022/10/22 20:38:39;;;;;;;31.90;20.13;;;;;;;13.58;100.00;100563.67;3343515;86;99462;-93
2022/10/22 20:43:43;;;;;;;31.33;21.20;;;;;;;13.46;100.00;100556.54;3410573;85;33946;-93
2022/10/22 20:48:44;;;;;;;35.55;22.58;;;;;;;13.39;100.00;100556.54;3405642;84;99402;-92
2022/10/22 20:53:45;;;;;;;40.23;24.70;;;;;;;13.32;100.00;100554.34;3403329;85;33838;-93
2022/10/22 20:58:47;;;;;;;39.40;24.03;;;;;;;13.27;100.00;100565.20;3374753;84;99470;-91
2022/10/22 21:03:51;;;;;;;44.93;28.13;;;;;;;13.14;100.00;100546.01;3406689;85;33340;-92
2022/10/22 21:08:51;;;;;;;45.03;27.70;;;;;;;13.24;100.00;100567.97;3364336;86;99849;-90
2022/10/22 21:13:52;;;;;;;50.90;28.93;;;;;;;13.25;100.00;100575.07;3400622;85;33257;-91
2022/10/22 21:18:53;;;;;;;48.80;27.70;;;;;;;13.25;100.00;100573.69;3397935;85;99164;-92
2022/10/22 21:23:54;;;;;;;43.93;27.57;;;;;;;13.28;100.00;100574.27;3387061;85;33293;-93
2022/10/22 21:28:55;;;;;;;52.77;28.27;;;;;;;13.29;100.00;100572.51;3363605;86;99508;-93
2022/10/22 21:33:56;;;;;;;59.70;27.17;;;;;;;13.31;100.00;100577.66;3337825;87;33304;-92
2022/10/22 21:38:57;;;;;;;42.13;25.00;;;;;;;13.33;100.00;100571.93;3392628;85;99381;-92
2022/10/22 21:43:58;;;;;;;44.80;24.97;;;;;;;13.34;100.00;100575.47;3388768;85;34104;-92
2022/10/22 21:49:02;;;;;;;39.77;22.93;;;;;;;13.36;100.00;100578.05;3331865;87;99581;-93
2022/10/22 21:54:04;;;;;;;47.27;25.93;;;;;;;13.36;100.00;100584.95;3400704;85;33244;-91
2022/10/22 21:59:06;;;;;;;41.53;25.00;;;;;;;13.39;100.00;100585.56;3393125;85;99424;-92
2022/10/22 22:04:07;;;;;;;46.50;24.73;;;;;;;13.41;100.00;100581.03;3407168;85;25885;-92
2022/10/22 22:09:08;;;;;;;39.70;24.67;;;;;;;13.29;100.00;100565.59;3394721;85;99686;-92
2022/10/22 22:14:09;;;;;;;62.67;26.80;;;;;;;13.43;100.00;100593.28;3406971;85;33357;-90
2022/10/22 22:19:09;;;;;;;29.60;20.23;;;;;;;13.43;100.00;100586.95;3396389;85;99275;-91
2022/10/22 22:24:12;;;;;;;60.07;26.63;;;;;;;13.42;100.00;100594.44;3404279;85;33311;-91
2022/10/22 22:29:13;;;;;;;44.60;24.90;;;;;;;13.42;100.00;100596.44;3400148;84;99422;-92
2022/10/22 22:34:15;;;;;;;53.40;26.48;;;;;;;13.44;100.00;100604.53;3379111;85;33301;-92
2022/10/22 22:39:21;;;;;;;49.67;24.97;;;;;;;13.43;100.00;100609.87;3401761;85;99445;-91
2022/10/22 22:44:22;;;;;;;55.65;23.07;;;;;;;13.42;100.00;100610.26;3402369;85;26040;-91
2022/10/22 22:49:22;;;;;;;33.00;19.57;;;;;;;13.43;100.00;100617.36;3402009;84;99860;-90